createdAt,value
2022-10-25T00:01:45.754Z,13.23
2022-10-25T00:06:42.083Z,13.25
2022-10-25T00:11:41.719Z,13.29
2022-10-25T00:16:41.750Z,13.29
2022-10-25T00:21:41.777Z,13.32
2022-10-25T00:26:41.800Z,13.38
2022-10-25T00:31:41.900Z,13.43
2022-10-25T00:36:41.758Z,13.45
2022-10-25T00:41:41.841Z,13.50
2022-10-25T00:46:43.089Z,13.55
2022-10-25T00:51:48.333Z,13.59
2022-10-25T00:56:45.154Z,13.62
2022-10-25T01:01:42.676Z,13.67
2022-10-25T01:06:45.270Z,13.68
2022-10-25T01:11:42.045Z,13.68
2022-10-25T01:16:59.804Z,13.69
2022-10-25T01:21:45.116Z,13.67
2022-10-25T01:26:55.496Z,13.71
2022-10-25T01:31:49.639Z,13.71
2022-10-25T01:36:57.282Z,13.72
2022-10-25T01:41:55.149Z,13.74
2022-10-25T01:46:50.945Z,13.75
2022-10-25T01:51:41.939Z,13.74
2022-10-25T01:56:53.977Z,13.76
2022-10-25T02:01:59.907Z,13.76
2022-10-25T02:06:43.980Z,13.77
2022-10-25T02:11:42.028Z,13.77
2022-10-25T02:16:48.297Z,13.75
2022-10-25T02:21:46.083Z,13.71
2022-10-25T02:26:43.936Z,13.71
2022-10-25T02:31:42.639Z,13.72
2022-10-25T02:36:42.092Z,13.73
2022-10-25T02:41:42.079Z,13.74
2022-10-25T02:46:42.128Z,13.73
2022-10-25T02:51:42.091Z,13.74
2022-10-25T02:56:42.182Z,13.72
2022-10-25T03:01:44.242Z,13.72
2022-10-25T03:06:42.134Z,13.73
2022-10-25T03:11:42.134Z,13.73
2022-10-25T03:16:42.244Z,13.74
2022-10-25T03:21:42.164Z,13.72
2022-10-25T03:26:42.170Z,13.66
2022-10-25T03:31:42.228Z,13.60
2022-10-25T03:36:42.202Z,13.51
2022-10-25T03:41:42.228Z,13.47
2022-10-25T03:46:42.228Z,13.45
2022-10-25T03:51:42.226Z,13.46
2022-10-25T03:56:42.315Z,13.45
2022-10-25T04:01:43.009Z,13.47
2022-10-25T04:06:42.316Z,13.47
2022-10-25T04:11:42.285Z,13.47
2022-10-25T04:16:42.255Z,13.48
2022-10-25T04:21:42.278Z,13.45
2022-10-25T04:26:42.311Z,13.41
2022-10-25T04:31:42.318Z,13.40
2022-10-25T04:36:42.353Z,13.36
2022-10-25T04:41:42.317Z,13.31
2022-10-25T04:46:46.375Z,13.23
2022-10-25T04:51:42.462Z,13.13
2022-10-25T04:56:42.365Z,13.09
2022-10-25T05:01:44.074Z,13.05
2022-10-25T05:06:42.386Z,13.02
2022-10-25T05:11:42.432Z,13.00
2022-10-25T05:16:42.397Z,12.96
2022-10-25T05:21:42.418Z,12.89
2022-10-25T05:26:42.444Z,12.83
2022-10-25T05:31:42.452Z,12.81
2022-10-25T05:36:42.476Z,12.81
2022-10-25T05:41:42.510Z,12.81
2022-10-25T05:46:43.198Z,12.80
2022-10-25T05:51:42.471Z,12.85
2022-10-25T05:56:42.952Z,12.85
2022-10-25T06:01:46.236Z,12.83
2022-10-25T06:06:44.669Z,12.87
2022-10-25T06:11:42.559Z,12.85
2022-10-25T06:16:42.542Z,12.82
2022-10-25T06:21:42.582Z,12.79
2022-10-25T06:26:42.549Z,12.78
2022-10-25T06:31:42.585Z,12.75
2022-10-25T06:36:42.578Z,12.72
2022-10-25T06:41:42.587Z,12.67
2022-10-25T06:47:15.414Z,12.64
2022-10-25T06:51:42.644Z,12.62
2022-10-25T06:56:42.627Z,12.64
2022-10-25T07:01:44.211Z,12.67
2022-10-25T07:06:42.694Z,12.73
2022-10-25T07:11:42.742Z,12.77
2022-10-25T07:16:42.709Z,12.80
2022-10-25T07:21:42.750Z,12.86
2022-10-25T07:26:42.974Z,12.93
2022-10-25T07:31:43.319Z,12.96
2022-10-25T07:36:42.936Z,12.98
2022-10-25T07:41:42.731Z,13.02
2022-10-25T07:46:42.791Z,13.08
2022-10-25T07:51:42.761Z,13.16
2022-10-25T07:56:42.822Z,13.25
2022-10-25T08:01:43.391Z,13.27
2022-10-25T08:06:42.781Z,13.32
2022-10-25T08:11:42.815Z,13.35
2022-10-25T08:16:42.827Z,13.43
2022-10-25T08:21:42.810Z,13.44
2022-10-25T08:26:42.855Z,13.51
2022-10-25T08:31:42.901Z,13.58
2022-10-25T08:36:42.838Z,13.74
2022-10-25T08:41:51.447Z,13.87
2022-10-25T08:46:56.075Z,14.07
2022-10-25T08:51:46.381Z,14.30
2022-10-25T08:56:56.980Z,14.48
2022-10-25T09:01:48.742Z,14.62
2022-10-25T09:06:53.504Z,15.37
2022-10-25T09:11:53.958Z,15.48
2022-10-25T09:16:54.627Z,15.59
2022-10-25T09:22:02.857Z,15.57
2022-10-25T09:27:02.887Z,15.83
2022-10-25T09:31:49.165Z,16.15
2022-10-25T09:36:46.322Z,16.93
2022-10-25T09:41:48.627Z,17.45
2022-10-25T09:46:51.723Z,17.41
2022-10-25T09:51:54.917Z,17.19
2022-10-25T09:56:43.049Z,16.51
2022-10-25T10:01:44.020Z,16.66
2022-10-25T10:06:43.131Z,17.37
2022-10-25T10:11:45.747Z,17.60
2022-10-25T10:16:46.312Z,17.54
2022-10-25T10:21:45.967Z,16.89
2022-10-25T10:26:48.246Z,16.36
2022-10-25T10:31:46.957Z,16.38
2022-10-25T10:36:43.120Z,16.33
2022-10-25T10:41:55.820Z,16.11
2022-10-25T10:46:44.720Z,15.81
2022-10-25T10:51:45.152Z,15.74
2022-10-25T10:56:51.521Z,16.17
2022-10-25T11:01:43.836Z,16.11
2022-10-25T11:06:43.209Z,16.61
2022-10-25T11:11:44.851Z,16.26
2022-10-25T11:16:51.224Z,16.02
2022-10-25T11:21:46.469Z,16.29
2022-10-25T11:26:52.346Z,16.80
2022-10-25T11:31:56.229Z,17.38
2022-10-25T11:37:03.163Z,16.87
2022-10-25T11:41:47.720Z,17.06
2022-10-25T11:46:52.337Z,17.39
2022-10-25T11:51:54.259Z,17.58
2022-10-25T11:56:59.353Z,17.91
2022-10-25T12:02:00.825Z,18.22
2022-10-25T12:07:01.231Z,18.24
2022-10-25T12:11:50.801Z,18.08
2022-10-25T12:16:43.887Z,17.67
2022-10-25T12:21:59.230Z,17.85
2022-10-25T12:26:44.790Z,17.70
2022-10-25T12:31:49.138Z,17.25
2022-10-25T12:36:51.019Z,17.20
2022-10-25T12:41:47.794Z,17.14
2022-10-25T12:47:03.320Z,17.21
2022-10-25T12:52:03.335Z,17.15
2022-10-25T12:56:53.387Z,17.49
2022-10-25T13:02:00.990Z,17.55
2022-10-25T13:06:46.587Z,17.09
2022-10-25T13:11:57.064Z,17.05
2022-10-25T13:16:43.521Z,17.22
2022-10-25T13:21:53.587Z,17.44
2022-10-25T13:27:03.419Z,17.58
2022-10-25T13:31:46.041Z,17.35
2022-10-25T13:36:52.703Z,17.43
2022-10-25T13:41:43.788Z,17.68
2022-10-25T13:46:43.675Z,17.81
2022-10-25T13:51:44.990Z,17.62
2022-10-25T13:56:49.448Z,17.67
2022-10-25T14:01:44.573Z,17.56
2022-10-25T14:06:43.689Z,17.48
2022-10-25T14:11:51.641Z,17.60
2022-10-25T14:16:54.548Z,17.50
2022-10-25T14:21:46.013Z,17.39
2022-10-25T14:26:54.093Z,17.34
2022-10-25T14:31:44.559Z,17.19
2022-10-25T14:36:47.568Z,17.17
2022-10-25T14:41:53.656Z,17.09
2022-10-25T14:46:43.721Z,16.97
2022-10-25T14:51:44.708Z,16.93
2022-10-25T14:56:43.683Z,16.92
2022-10-25T15:01:53.139Z,16.87
2022-10-25T15:06:47.286Z,16.78
2022-10-25T15:12:02.436Z,16.67
2022-10-25T15:16:43.781Z,16.57
2022-10-25T15:21:48.390Z,16.38
2022-10-25T15:26:55.175Z,16.24
2022-10-25T15:31:43.815Z,16.13
2022-10-25T15:36:43.813Z,16.02
2022-10-25T15:41:43.832Z,15.85
2022-10-25T15:46:46.119Z,15.69
2022-10-25T15:51:44.884Z,15.56
2022-10-25T15:56:44.272Z,15.43
2022-10-25T16:01:47.705Z,15.32
2022-10-25T16:06:45.127Z,15.22
2022-10-25T16:11:53.751Z,15.09
2022-10-25T16:16:43.908Z,14.97
2022-10-25T16:21:45.058Z,14.83
2022-10-25T16:26:47.116Z,14.70
2022-10-25T16:31:44.139Z,14.59
2022-10-25T16:36:45.453Z,14.47
2022-10-25T16:41:45.316Z,14.37
2022-10-25T16:46:44.923Z,14.26
2022-10-25T16:51:43.982Z,14.16
2022-10-25T16:56:44.205Z,14.07
2022-10-25T17:01:44.980Z,14.01
2022-10-25T17:06:44.005Z,13.96
2022-10-25T17:11:44.786Z,13.90
2022-10-25T17:16:44.061Z,13.84
2022-10-25T17:21:44.037Z,13.79
2022-10-25T17:26:44.055Z,13.74
2022-10-25T17:31:44.346Z,13.68
2022-10-25T17:36:44.132Z,13.63
2022-10-25T17:41:44.130Z,13.58
2022-10-25T17:51:44.315Z,13.46
2022-10-25T17:56:44.126Z,13.42
2022-10-25T18:01:44.779Z,13.37
2022-10-25T18:06:44.132Z,13.32
2022-10-25T18:11:44.314Z,13.27
2022-10-25T18:16:44.259Z,13.23
2022-10-25T18:21:44.171Z,13.19
2022-10-25T18:26:44.179Z,13.13
2022-10-25T18:31:44.302Z,13.08
2022-10-25T18:36:44.200Z,13.06
2022-10-25T18:41:44.326Z,13.03
2022-10-25T18:46:44.285Z,12.99
2022-10-25T18:51:44.260Z,12.96
2022-10-25T18:56:44.246Z,12.89
2022-10-25T19:01:45.958Z,12.85
2022-10-25T19:06:44.275Z,12.82
2022-10-25T19:11:44.323Z,12.74
2022-10-25T19:16:44.286Z,12.68
2022-10-25T19:21:44.296Z,12.63
2022-10-25T19:26:44.642Z,12.57
2022-10-25T19:31:44.343Z,12.49
2022-10-25T19:36:44.334Z,12.45
2022-10-25T19:41:44.365Z,12.37
2022-10-25T19:46:44.367Z,12.33
2022-10-25T19:51:44.444Z,12.29
2022-10-25T19:56:45.032Z,12.24
2022-10-25T20:01:45.049Z,12.17
2022-10-25T20:06:44.412Z,12.11
2022-10-25T20:11:44.536Z,12.07
2022-10-25T20:16:44.429Z,12.00
2022-10-25T20:21:44.441Z,11.95
2022-10-25T20:26:44.444Z,11.86
2022-10-25T20:31:44.551Z,11.80
2022-10-25T20:36:45.493Z,11.74
2022-10-25T20:41:44.486Z,11.69
2022-10-25T20:46:44.512Z,11.65
2022-10-25T20:51:44.516Z,11.61
2022-10-25T20:56:44.520Z,11.58
2022-10-25T21:01:45.214Z,11.55
2022-10-25T21:06:44.608Z,11.53
2022-10-25T21:11:44.566Z,11.51
2022-10-25T21:16:44.628Z,11.47
2022-10-25T21:21:44.627Z,11.44
2022-10-25T21:26:44.604Z,11.42
2022-10-25T21:31:46.513Z,11.39
2022-10-25T21:36:44.681Z,11.35
2022-10-25T21:41:44.665Z,11.31
2022-10-25T21:46:44.678Z,11.27
2022-10-25T21:51:44.669Z,11.25
2022-10-25T21:56:44.667Z,11.21
2022-10-25T22:01:46.571Z,11.19
2022-10-25T22:06:44.679Z,11.15
2022-10-25T22:11:45.245Z,11.14
2022-10-25T22:16:44.744Z,11.13
2022-10-25T22:21:47.335Z,11.09
2022-10-25T22:26:45.237Z,11.11
2022-10-25T22:31:44.762Z,11.11
2022-10-25T22:36:44.746Z,11.09
2022-10-25T22:41:47.793Z,11.08
2022-10-25T22:46:44.804Z,11.09
2022-10-25T22:51:44.782Z,11.11
2022-10-25T22:56:44.802Z,11.12
2022-10-25T23:01:45.374Z,11.10
2022-10-25T23:06:44.818Z,11.09
2022-10-25T23:11:44.840Z,11.08
2022-10-25T23:16:45.235Z,11.09
2022-10-25T23:21:44.847Z,11.10
2022-10-25T23:26:44.879Z,11.10
2022-10-25T23:31:44.875Z,11.10
2022-10-25T23:36:44.888Z,11.13
2022-10-25T23:41:44.890Z,11.16
2022-10-25T23:46:44.922Z,11.16
2022-10-25T23:51:44.937Z,11.19
2022-10-25T23:56:44.936Z,11.19
